Time;durP1;ratioP1;P1;durP2;ratioP2;P2;SDS_P1;SDS_P2;PMS_P1;PMS_P2;Temp;Humidity;BMP_temperature;BMP_pressure;BME280_temperature;BME280_humidity;BME280_pressure;Samples;Min_cycle;Max_cycle;Signal;HPM_P1;HPM_P2
2023/04/28 00:01:15;;;;;;;6.68;3.00;;;;;;;11.56;100.00;100197.53;5070453;28;20033;-68
2023/04/28 00:03:41;;;;;;;4.15;2.58;;;;;;;11.03;100.00;100139.66;5071203;28;20040;-68
2023/04/28 00:06:07;;;;;;;3.28;2.40;;;;;;;10.87;100.00;100146.88;5071697;28;20029;-69
2023/04/28 00:08:32;;;;;;;4.28;2.50;;;;;;;11.40;100.00;100201.38;5071315;28;20132;-70
2023/04/28 00:10:57;;;;;;;3.58;2.45;;;;;;;11.51;100.00;100212.09;5070153;28;20053;-68
2023/04/28 00:13:23;;;;;;;3.50;2.33;;;;;;;11.59;100.00;100206.81;5069596;28;20055;-68
2023/04/28 00:15:51;;;;;;;5.88;2.38;;;;;;;11.37;100.00;100210.81;5070945;28;20097;-68
2023/04/28 00:18:17;;;;;;;4.00;2.40;;;;;;;11.42;100.00;100220.00;5071734;28;20461;-68
2023/04/28 00:20:43;;;;;;;3.63;2.30;;;;;;;11.53;100.00;100250.25;5069678;28;20044;-69
2023/04/28 00:23:08;;;;;;;7.22;2.55;;;;;;;11.55;100.00;100245.97;5069354;28;20137;-69
2023/04/28 00:25:34;;;;;;;7.78;2.60;;;;;;;11.23;100.00;100188.28;5069580;28;20556;-70
2023/04/28 00:28:00;;;;;;;8.35;2.65;;;;;;;11.12;100.00;100191.13;5070711;28;20460;-68
2023/04/28 00:30:25;;;;;;;5.32;2.72;;;;;;;11.48;100.00;100252.94;5071394;28;20115;-68
2023/04/28 00:32:51;;;;;;;3.88;2.30;;;;;;;11.31;100.00;100268.63;5069083;28;20565;-68
2023/04/28 00:35:16;;;;;;;6.47;2.70;;;;;;;10.88;100.00;100203.63;5069271;28;20035;-67
2023/04/28 00:37:42;;;;;;;5.53;2.50;;;;;;;11.37;100.00;100249.00;5069921;28;20036;-67
2023/04/28 00:40:08;;;;;;;6.97;2.72;;;;;;;11.22;100.00;100242.59;5069542;28;20128;-68
2023/04/28 00:42:33;;;;;;;4.60;2.40;;;;;;;10.92;100.00;100207.78;5071022;28;20414;-68
2023/04/28 00:45:04;;;;;;;4.13;2.22;;;;;;;10.89;100.00;100197.69;5069794;28;20044;-68
2023/04/28 00:47:33;;;;;;;4.05;2.75;;;;;;;10.71;100.00;100200.69;5070955;28;20104;-68
2023/04/28 00:50:00;;;;;;;4.85;2.47;;;;;;;11.36;100.00;100232.88;5069407;28;20406;-68
2023/04/28 00:52:26;;;;;;;3.30;2.50;;;;;;;11.22;100.00;100243.44;5070666;28;20058;-68
2023/04/28 00:54:52;;;;;;;4.30;2.70;;;;;;;10.90;100.00;100240.03;5069226;28;20040;-68
2023/04/28 00:57:18;;;;;;;5.20;2.90;;;;;;;10.84;100.00;100245.28;5068988;28;20032;-68
2023/04/28 00:59:44;;;;;;;5.25;3.40;;;;;;;10.77;100.00;100236.16;5068970;28;20509;-68
2023/04/28 01:02:15;;;;;;;6.40;3.35;;;;;;;11.09;100.00;100241.25;5070943;28;20024;-68
2023/04/28 01:04:42;;;;;;;5.47;3.03;;;;;;;10.79;100.00;100216.59;5069457;28;20033;-68
2023/04/28 01:07:08;;;;;;;6.10;3.10;;;;;;;10.48;100.00;100191.91;5068743;28;20086;-69
2023/04/28 01:09:33;;;;;;;5.32;3.10;;;;;;;10.58;100.00;100256.06;5070292;28;20032;-68
2023/04/28 01:11:59;;;;;;;5.85;2.90;;;;;;;10.46;100.00;100186.03;5068383;28;20069;-68
2023/04/28 01:14:24;;;;;;;6.18;3.13;;;;;;;10.80;100.00;100243.69;5070363;28;20491;-68
2023/04/28 01:16:50;;;;;;;4.05;2.72;;;;;;;10.74;100.00;100228.56;5068797;28;20028;-69
2023/04/28 01:19:22;;;;;;;5.93;3.22;;;;;;;10.68;100.00;100252.44;5068749;28;20482;-68
2023/04/28 01:21:50;;;;;;;8.48;3.60;;;;;;;10.45;100.00;100173.38;5069159;28;20113;-68
2023/04/28 01:24:21;;;;;;;3.78;2.90;;;;;;;10.74;100.00;100248.91;5069509;28;20120;-68
2023/04/28 01:26:46;;;;;;;4.68;2.95;;;;;;;10.39;100.00;100192.16;5070245;28;20032;-68
2023/04/28 01:29:12;;;;;;;6.97;3.20;;;;;;;10.94;100.00;100246.72;5069333;28;20033;-68
2023/04/28 01:31:37;;;;;;;6.30;3.47;;;;;;;10.41;100.00;100198.03;5070305;28;20495;-68
2023/04/28 01:34:03;;;;;;;5.15;2.88;;;;;;;10.69;100.00;100251.59;5070030;28;20040;-68
2023/04/28 01:36:29;;;;;;;8.07;3.55;;;;;;;10.09;100.00;100185.19;5070065;28;20142;-68
2023/04/28 01:38:54;;;;;;;6.65;3.25;;;;;;;10.30;100.00;100209.31;5070166;28;20049;-68
2023/04/28 01:41:21;;;;;;;6.72;3.10;;;;;;;10.55;100.00;100255.31;5068438;28;20047;-68
2023/04/28 01:43:46;;;;;;;5.53;3.10;;;;;;;10.66;100.00;100240.63;5068575;28;20060;-70
2023/04/28 01:46:12;;;;;;;6.53;3.47;;;;;;;10.27;100.00;100206.84;5068809;28;20502;-69
2023/04/28 01:48:37;;;;;;;5.80;2.95;;;;;;;10.01;100.00;100193.84;5064582;28;20480;-68
2023/04/28 01:51:03;;;;;;;5.30;2.90;;;;;;;10.33;100.00;100243.13;5054106;28;20407;-68
2023/04/28 01:53:28;;;;;;;5.22;2.92;;;;;;;10.54;100.00;100261.28;5052589;28;20033;-68
2023/04/28 01:55:54;;;;;;;4.20;2.50;;;;;;;10.41;100.00;100248.88;5054041;28;20059;-68
2023/04/28 01:58:19;;;;;;;5.82;3.00;;;;;;;10.36;100.00;100271.00;5052673;28;20112;-69
2023/04/28 02:00:45;;;;;;;5.25;2.90;;;;;;;10.15;100.00;100238.44;5057528;28;20036;-68
2023/04/28 02:03:10;;;;;;;3.75;2.80;;;;;;;9.86;100.00;100217.91;5073622;28;20542;-68
2023/04/28 02:05:36;;;;;;;4.35;3.20;;;;;;;10.18;100.00;100268.84;5073604;28;20051;-69
2023/04/28 02:08:01;;;;;;;4.82;2.90;;;;;;;10.00;100.00;100205.72;5071887;28;20431;-69
2023/04/28 02:10:27;;;;;;;6.13;3.08;;;;;;;10.14;100.00;100246.91;5073759;28;20020;-68
2023/04/28 02:12:52;;;;;;;5.20;3.15;;;;;;;9.81;100.00;100189.22;5071832;28;20133;-68
2023/04/28 02:15:18;;;;;;;4.78;3.13;;;;;;;9.94;100.00;100246.50;5072304;28;20033;-68
2023/04/28 02:17:43;;;;;;;5.63;3.13;;;;;;;10.04;100.00;100222.56;5072184;28;20083;-69
2023/04/28 02:20:09;;;;;;;3.88;2.85;;;;;;;9.75;100.00;100175.81;5073463;28;20046;-68
2023/04/28 02:22:35;;;;;;;4.40;3.10;;;;;;;9.94;100.00;100245.66;5072977;28;20097;-69
2023/04/28 02:25:00;;;;;;;4.68;2.85;;;;;;;9.93;100.00;100242.28;5073239;28;20467;-68
2023/04/28 02:27:26;;;;;;;4.28;3.30;;;;;;;10.06;100.00;100227.63;5072177;28;20078;-68
2023/04/28 02:29:52;;;;;;;4.22;2.63;;;;;;;9.81;100.00;100198.53;5073556;28;20094;-68
2023/04/28 02:32:17;;;;;;;5.15;2.78;;;;;;;9.87;100.00;100195.84;5073383;28;20548;-68
2023/04/28 02:34:43;;;;;;;5.75;2.75;;;;;;;9.99;100.00;100160.88;5071947;28;20028;-68
2023/04/28 02:37:08;;;;;;;5.35;2.75;;;;;;;9.84;100.00;100109.63;5071749;28;20036;-69
2023/04/28 02:39:33;;;;;;;6.55;3.90;;;;;;;9.29;100.00;100057.53;5071960;28;20491;-68
2023/04/28 02:41:59;;;;;;;4.50;3.33;;;;;;;9.33;100.00;100068.47;5072095;28;20483;-68
2023/04/28 02:44:25;;;;;;;7.35;3.20;;;;;;;9.07;100.00;100045.34;5073015;28;20139;-68
2023/04/28 02:46:50;;;;;;;5.45;3.00;;;;;;;9.20;100.00;100054.38;5073561;28;20470;-69
2023/04/28 02:49:15;;;;;;;6.30;3.35;;;;;;;9.43;100.00;100075.00;5071579;28;20379;-69
2023/04/28 02:51:41;;;;;;;8.40;3.15;;;;;;;8.80;100.00;100023.09;5071125;28;20040;-69
2023/04/28 02:54:06;;;;;;;5.43;3.50;;;;;;;9.10;100.00;100093.47;5072598;28;20068;-69
2023/04/28 02:56:33;;;;;;;7.65;3.50;;;;;;;8.61;100.00;100053.88;5072889;28;20407;-69
2023/04/28 02:58:58;;;;;;;6.80;3.38;;;;;;;8.69;100.00;100044.41;5071753;28;20032;-69
2023/04/28 03:01:23;;;;;;;6.05;3.28;;;;;;;8.67;100.00;100060.53;5072575;28;20511;-69
2023/04/28 03:03:49;;;;;;;6.03;3.58;;;;;;;8.90;100.00;100085.41;5071102;28;20527;-69
2023/04/28 03:06:15;;;;;;;7.00;4.90;;;;;;;9.19;100.00;100133.88;5072285;28;20122;-69
2023/04/28 03:08:40;;;;;;;5.57;4.00;;;;;;;8.79;100.00;100097.47;5070701;28;20033;-69
2023/04/28 03:11:06;;;;;;;7.07;3.67;;;;;;;8.92;100.00;100096.34;5070457;28;20052;-69
2023/04/28 03:13:31;;;;;;;8.93;4.22;;;;;;;8.50;100.00;100057.44;5070838;28;20494;-69
2023/04/28 03:15:56;;;;;;;5.40;4.70;;;;;;;8.94;100.00;100158.00;5070476;28;20086;-69
2023/04/28 03:18:42;;;;;;;8.25;5.18;;;;;;;8.96;100.00;100192.63;5072751;28;20032;-69
2023/04/28 03:21:08;;;;;;;8.02;4.25;;;;;;;8.94;100.00;100153.78;5072198;28;20078;-69
2023/04/28 03:23:33;;;;;;;9.15;4.03;;;;;;;8.99;100.00;100182.44;5070730;28;20036;-68
2023/04/28 03:25:58;;;;;;;7.97;4.07;;;;;;;9.39;100.00;100221.38;5071113;28;20411;-68
2023/04/28 03:28:24;;;;;;;6.25;3.97;;;;;;;9.25;100.00;100247.88;5072416;28;20021;-69
2023/04/28 03:30:49;;;;;;;7.55;3.90;;;;;;;9.48;100.00;100250.81;5072161;28;20109;-68
2023/04/28 03:33:15;;;;;;;6.97;3.92;;;;;;;9.23;100.00;100242.00;5070744;28;20504;-67
2023/04/28 03:35:40;;;;;;;6.57;4.07;;;;;;;9.38;100.00;100234.09;5070806;28;20036;-69
2023/04/28 03:38:06;;;;;;;7.13;3.88;;;;;;;10.12;100.00;100207.19;5071937;28;20048;-68
2023/04/28 03:40:31;;;;;;;6.85;4.20;;;;;;;10.10;100.00;100219.09;5072123;28;20074;-69
2023/04/28 03:42:57;;;;;;;7.18;4.15;;;;;;;9.67;100.00;100314.75;5072330;28;20052;-69
2023/04/28 03:45:22;;;;;;;6.03;4.07;;;;;;;9.75;100.00;100311.19;5070621;28;20178;-71
2023/04/28 03:47:48;;;;;;;7.07;3.90;;;;;;;9.84;100.00;100312.72;5070309;28;20060;-73
2023/04/28 03:50:13;;;;;;;5.15;3.97;;;;;;;9.72;100.00;100326.50;5071545;28;20108;-69
2023/04/28 03:52:38;;;;;;;6.15;3.92;;;;;;;9.23;100.00;100283.41;5070798;28;20724;-69
2023/04/28 03:55:04;;;;;;;9.13;4.10;;;;;;;9.75;100.00;100335.75;5071953;28;20037;-71
2023/04/28 03:57:30;;;;;;;6.20;3.63;;;;;;;9.45;100.00;100322.75;5071766;28;20501;-69
2023/04/28 03:59:55;;;;;;;8.43;4.00;;;;;;;9.67;100.00;100294.44;5072255;28;20032;-71
2023/04/28 04:02:20;;;;;;;6.75;4.03;;;;;;;9.49;100.00;100295.63;5070842;28;20033;-71
2023/04/28 04:04:46;;;;;;;5.43;4.38;;;;;;;9.65;100.00;100357.94;5070639;28;20116;-71
2023/04/28 04:07:12;;;;;;;10.90;5.93;;;;;;;9.59;100.00;100358.03;5070621;28;20115;-70
2023/04/28 04:09:37;;;;;;;7.28;4.63;;;;;;;9.54;100.00;100349.69;5071086;28;20028;-74
2023/04/28 04:12:03;;;;;;;9.98;4.88;;;;;;;9.35;100.00;100298.41;5070917;28;20094;-70
2023/04/28 04:14:28;;;;;;;8.38;4.75;;;;;;;9.34;100.00;100309.44;5070411;28;20051;-72
2023/04/28 04:16:54;;;;;;;5.90;3.92;;;;;;;9.75;100.00;100367.06;5070559;28;20430;-74
2023/04/28 04:19:20;;;;;;;7.95;4.32;;;;;;;9.62;100.00;100327.53;5071821;28;20120;-72
2023/04/28 04:21:45;;;;;;;7.20;4.15;;;;;;;9.73;100.00;100378.94;5070485;28;20039;-71
2023/04/28 04:24:10;;;;;;;6.50;4.28;;;;;;;9.79;100.00;100365.28;5070810;28;20059;-71
2023/04/28 04:26:36;;;;;;;7.22;4.10;;;;;;;9.79;100.00;100381.38;5088020;28;20075;-73
2023/04/28 04:29:01;;;;;;;6.72;4.47;;;;;;;10.08;100.00;100363.88;5087932;28;20067;-71
2023/04/28 04:31:27;;;;;;;6.28;4.50;;;;;;;10.01;100.00;100392.81;5070485;28;20505;-71
2023/04/28 04:33:52;;;;;;;7.60;3.88;;;;;;;10.13;100.00;100382.44;5071354;28;20028;-73
2023/04/28 04:36:17;;;;;;;6.13;4.50;;;;;;;9.92;100.00;100356.59;5055119;28;20033;-72
2023/04/28 04:38:43;;;;;;;9.07;4.00;;;;;;;9.69;100.00;100379.00;5051589;28;20051;-70
2023/04/28 04:41:08;;;;;;;7.00;4.15;;;;;;;10.07;100.00;100400.31;5051370;28;20029;-71
2023/04/28 04:43:34;;;;;;;7.00;4.55;;;;;;;9.83;100.00;100390.59;5058694;28;20036;-73
2023/04/28 04:45:59;;;;;;;6.30;4.38;;;;;;;9.74;100.00;100357.78;5074193;28;20111;-71
2023/04/28 04:48:24;;;;;;;7.32;4.50;;;;;;;9.97;100.00;100337.84;5070066;28;20039;-73
2023/04/28 04:50:50;;;;;;;9.93;4.95;;;;;;;10.98;100.00;100389.06;5069693;28;20055;-73
2023/04/28 04:53:15;;;;;;;6.38;4.15;;;;;;;10.04;100.00;100352.09;5070548;28;20039;-72
2023/04/28 04:55:41;;;;;;;8.38;4.28;;;;;;;10.41;100.00;100415.75;5070499;28;20119;-72
2023/04/28 04:58:06;;;;;;;6.75;4.70;;;;;;;10.23;100.00;100421.19;5070299;28;20116;-72
2023/04/28 05:00:32;;;;;;;9.43;4.85;;;;;;;10.14;100.00;100412.03;5070669;28;20029;-73
2023/04/28 05:02:58;;;;;;;7.82;5.03;;;;;;;10.09;100.00;100324.91;5069643;28;20169;-72
2023/04/28 05:05:23;;;;;;;10.27;5.00;;;;;;;10.57;100.00;100417.13;5069925;28;20510;-76
2023/04/28 05:07:49;;;;;;;8.02;5.30;;;;;;;10.24;100.00;100385.59;5070389;28;20415;-72
2023/04/28 05:10:14;;;;;;;7.43;5.00;;;;;;;10.01;100.00;100375.03;5070217;28;20024;-72
2023/04/28 05:12:40;;;;;;;7.05;4.30;;;;;;;10.27;100.00;100430.44;5070868;28;20064;-73
2023/04/28 05:15:06;;;;;;;8.48;4.88;;;;;;;10.70;100.00;100435.47;5069646;28;20024;-73
2023/04/28 05:17:32;;;;;;;9.40;5.28;;;;;;;10.95;100.00;100436.66;5069580;28;20037;-74
2023/04/28 05:19:57;;;;;;;11.15;5.13;;;;;;;11.04;100.00;100433.88;5070832;28;20020;-73
2023/04/28 05:22:24;;;;;;;11.02;5.25;;;;;;;10.86;100.00;100444.47;5069022;28;20032;-73
2023/04/28 05:24:50;;;;;;;4.60;3.70;;;;;;;10.59;100.00;100404.38;5070103;28;20483;-75
2023/04/28 05:27:15;;;;;;;14.30;4.72;;;;;;;11.29;100.00;100457.88;5071107;28;20038;-74
2023/04/28 05:29:41;;;;;;;8.05;4.45;;;;;;;10.95;100.00;100408.66;5069839;28;20031;-73
2023/04/28 05:32:06;;;;;;;10.27;4.72;;;;;;;10.90;100.00;100453.69;5069659;28;20064;-73
2023/04/28 05:34:31;;;;;;;6.97;4.30;;;;;;;11.20;100.00;100453.03;5069379;28;20032;-73
2023/04/28 05:36:57;;;;;;;6.32;4.22;;;;;;;11.07;100.00;100467.72;5069985;28;20066;-73
2023/04/28 05:39:22;;;;;;;6.20;4.20;;;;;;;11.23;100.00;100463.16;5071441;28;20473;-73
2023/04/28 05:41:48;;;;;;;5.53;4.25;;;;;;;11.11;100.00;100422.72;5066297;28;20036;-73
2023/04/28 05:44:13;;;;;;;7.50;3.60;;;;;;;11.39;100.00;100474.63;5066591;28;20037;-73
2023/04/28 05:46:38;;;;;;;6.32;3.50;;;;;;;11.12;100.00;100487.97;5050588;28;20483;-73
2023/04/28 05:49:04;;;;;;;9.93;4.32;;;;;;;11.79;100.00;100485.56;5049729;28;20115;-73
2023/04/28 05:51:29;;;;;;;5.35;3.53;;;;;;;12.09;100.00;100491.59;5050171;28;20033;-73
2023/04/28 05:53:55;;;;;;;4.88;2.90;;;;;;;11.53;100.00;100510.78;5066149;28;20112;-73
2023/04/28 05:56:21;;;;;;;3.83;2.50;;;;;;;11.32;100.00;100545.22;5050023;28;20071;-74
2023/04/28 05:58:48;;;;;;;6.20;2.50;;;;;;;11.47;100.00;100512.66;5049789;28;20033;-72
2023/04/28 06:01:13;;;;;;;5.82;2.97;;;;;;;11.32;100.00;100580.84;5051310;28;20051;-73
2023/04/28 06:03:40;;;;;;;5.50;2.58;;;;;;;11.06;100.00;100621.25;5050898;28;20120;-73
2023/04/28 06:06:06;;;;;;;8.00;2.78;;;;;;;11.40;100.00;100620.56;5051335;28;20028;-72
2023/04/28 06:08:32;;;;;;;9.40;3.20;;;;;;;11.27;100.00;100627.63;5050675;28;20037;-73
2023/04/28 06:10:57;;;;;;;8.25;3.47;;;;;;;11.66;100.00;100671.81;5050547;28;20091;-76
2023/04/28 06:13:23;;;;;;;9.07;3.60;;;;;;;11.31;100.00;100644.50;5066345;28;20131;-74
2023/04/28 06:15:48;;;;;;;7.78;3.17;;;;;;;11.02;100.00;100673.06;5049097;28;20060;-73
2023/04/28 06:18:15;;;;;;;8.27;3.10;;;;;;;11.01;100.00;100690.91;5050071;28;20090;-72
2023/04/28 06:20:41;;;;;;;5.90;2.65;;;;;;;11.06;100.00;100694.22;5065933;28;20033;-73
2023/04/28 06:23:07;;;;;;;5.22;3.50;;;;;;;11.45;100.00;100752.00;5050276;28;20553;-72
2023/04/28 06:25:33;;;;;;;6.63;3.80;;;;;;;11.13;100.00;100733.97;5050776;28;20040;-72
2023/04/28 06:27:59;;;;;;;7.97;3.22;;;;;;;11.30;100.00;100785.38;5049375;28;20025;-75
2023/04/28 06:30:24;;;;;;;5.78;2.88;;;;;;;11.11;100.00;100745.88;5049443;28;20512;-72
2023/04/28 06:32:50;;;;;;;7.72;2.90;;;;;;;11.34;100.00;100832.84;5050476;28;20052;-73
2023/04/28 06:35:16;;;;;;;6.00;2.50;;;;;;;11.45;100.00;100791.91;5053871;28;20057;-73
2023/04/28 06:37:53;;;;;;;5.40;2.80;;;;;;;11.86;100.00;100785.19;5053928;28;20422;-72
2023/04/28 06:40:19;;;;;;;4.40;2.47;;;;;;;12.02;100.00;100859.63;5053597;28;20495;-73
2023/04/28 06:42:44;;;;;;;4.30;2.40;;;;;;;12.58;100.00;100850.75;5069058;28;20067;-73
2023/04/28 06:45:10;;;;;;;4.40;2.20;;;;;;;12.23;100.00;100896.56;5053773;28;20036;-72
2023/04/28 06:47:36;;;;;;;7.13;2.60;;;;;;;12.06;100.00;100927.50;5052493;28;20529;-73
2023/04/28 06:50:02;;;;;;;6.90;2.30;;;;;;;11.73;100.00;100973.94;5053443;28;20352;-73
2023/04/28 06:52:28;;;;;;;5.85;2.70;;;;;;;11.85;100.00;100951.66;5052407;28;20028;-72
2023/04/28 06:54:54;;;;;;;8.00;2.85;;;;;;;11.55;100.00;100964.88;5053721;28;20044;-73
2023/04/28 06:57:20;;;;;;;5.28;2.80;;;;;;;11.68;100.00;101011.41;5057175;28;20040;-73
2023/04/28 06:59:45;;;;;;;7.68;3.20;;;;;;;11.65;100.00;101095.47;5072559;28;20479;-73
2023/04/28 07:02:10;;;;;;;6.25;3.10;;;;;;;12.16;100.00;101085.34;5072921;28;20043;-73
2023/04/28 07:04:36;;;;;;;12.00;8.65;;;;;;;12.17;100.00;101102.34;5073008;28;20032;-73
2023/04/28 07:07:03;;;;;;;6.15;2.70;;;;;;;11.79;100.00;101091.88;5073361;28;20186;-78
2023/04/28 07:09:29;;;;;;;7.85;3.20;;;;;;;12.62;100.00;101097.28;5073841;28;20115;-72
2023/04/28 07:11:54;;;;;;;7.07;2.88;;;;;;;12.12;100.00;101147.44;5071703;28;20067;-72
2023/04/28 07:14:19;;;;;;;7.75;3.50;;;;;;;12.40;100.00;101164.88;5072235;28;20028;-73
2023/04/28 07:16:45;;;;;;;9.98;5.00;;;;;;;13.35;100.00;101194.63;5071513;28;20037;-72
2023/04/28 07:19:11;;;;;;;5.80;2.50;;;;;;;12.55;100.00;101233.47;5071884;28;20033;-72
2023/04/28 07:21:36;;;;;;;6.22;2.80;;;;;;;13.55;100.00;101218.06;5053312;28;20039;-72
2023/04/28 07:24:07;;;;;;;5.97;3.00;;;;;;;12.42;100.00;101298.31;5052670;28;20122;-73
2023/04/28 07:26:33;;;;;;;8.23;2.80;;;;;;;12.68;100.00;101383.81;5053267;28;20064;-73
2023/04/28 07:28:58;;;;;;;6.25;2.72;;;;;;;12.91;100.00;101314.56;5052979;28;20079;-73
2023/04/28 07:31:24;;;;;;;6.38;2.67;;;;;;;13.20;100.00;101335.38;5051646;28;20069;-73
2023/04/28 07:33:50;;;;;;;5.90;2.42;;;;;;;13.30;100.00;101362.47;5052146;28;20411;-73
2023/04/28 07:36:16;;;;;;;5.57;2.20;;;;;;;13.29;100.00;101368.41;5052789;28;20029;-73
2023/04/28 07:38:41;;;;;;;8.13;2.42;;;;;;;12.61;100.00;101427.28;5052790;28;20040;-73
2023/04/28 07:41:07;;;;;;;6.22;2.92;;;;;;;13.04;100.00;101418.19;5052668;28;20508;-73
2023/04/28 07:43:32;;;;;;;5.28;2.70;;;;;;;13.13;100.00;101415.53;5051821;28;20040;-72
2023/04/28 07:45:57;;;;;;;5.38;2.70;;;;;;;13.48;100.00;101408.13;5051617;28;20033;-71
2023/04/28 07:48:23;;;;;;;8.15;2.80;;;;;;;14.52;100.00;101390.78;5070428;28;20418;-71
2023/04/28 07:50:48;;;;;;;7.78;2.47;;;;;;;14.28;100.00;101434.78;5070969;28;20036;-73
2023/04/28 07:53:14;;;;;;;4.82;2.15;;;;;;;14.39;100.00;101455.91;5071580;28;20483;-71
2023/04/28 07:55:42;;;;;;;4.00;2.30;;;;;;;14.94;100.00;101480.34;5071094;28;20036;-71
2023/04/28 07:58:07;;;;;;;5.68;2.22;;;;;;;14.49;100.00;101448.88;5071428;28;20035;-73
2023/04/28 08:00:33;;;;;;;5.22;2.80;;;;;;;15.14;100.00;101561.03;5072347;28;20044;-73
2023/04/28 08:02:58;;;;;;;6.53;2.08;;;;;;;15.27;100.00;101536.81;5070683;28;20027;-72
2023/04/28 08:05:24;;;;;;;8.10;2.58;;;;;;;15.56;100.00;101579.78;5071249;28;20597;-72
2023/04/28 08:07:49;;;;;;;4.32;2.00;;;;;;;15.58;100.00;101655.81;5072005;28;20024;-73
2023/04/28 08:10:15;;;;;;;5.72;2.15;;;;;;;15.11;100.00;101640.53;5070933;28;20033;-73
2023/04/28 08:12:40;;;;;;;4.93;2.20;;;;;;;15.79;100.00;101692.94;5070274;28;20477;-72
2023/04/28 08:15:08;;;;;;;4.57;2.40;;;;;;;15.08;100.00;101776.38;5070695;28;20146;-72
2023/04/28 08:17:34;;;;;;;5.07;2.10;;;;;;;15.90;100.00;101765.41;5071690;28;20062;-72
2023/04/28 08:19:59;;;;;;;3.28;1.77;;;;;;;15.45;100.00;101746.66;5070342;28;20516;-72
2023/04/28 08:22:24;;;;;;;4.47;2.20;;;;;;;16.21;100.00;101756.16;5070876;28;20534;-73
2023/04/28 08:24:50;;;;;;;3.40;1.88;;;;;;;16.28;100.00;101764.56;5071689;28;20029;-72
2023/04/28 08:27:15;;;;;;;5.68;2.20;;;;;;;15.65;100.00;101743.69;5070829;28;20039;-73
2023/04/28 08:29:41;;;;;;;4.07;1.90;;;;;;;15.53;100.00;101760.16;5069936;28;20039;-72
2023/04/28 08:32:06;;;;;;;7.13;2.20;;;;;;;15.17;100.00;101837.69;5070453;28;20028;-71
2023/04/28 08:34:32;;;;;;;7.38;2.13;;;;;;;14.11;100.00;101745.47;5069969;28;20025;-70
2023/04/28 08:36:58;;;;;;;7.07;2.45;;;;;;;15.17;100.00;101717.25;5070209;28;20035;-71
2023/04/28 08:39:25;;;;;;;10.32;2.25;;;;;;;14.92;100.00;101620.41;5069677;28;20033;-72
2023/04/28 08:41:51;;;;;;;7.53;2.80;;;;;;;16.21;100.00;101570.50;5071438;28;20063;-72
2023/04/28 08:44:17;;;;;;;7.22;2.30;;;;;;;15.10;100.00;101413.38;5069985;28;20033;-72
2023/04/28 08:46:44;;;;;;;4.95;2.53;;;;;;;13.80;100.00;101206.47;5070393;28;20062;-72
2023/04/28 08:49:17;;;;;;;8.85;2.65;;;;;;;14.84;100.00;101158.78;5070057;28;20028;-74
2023/04/28 08:51:54;;;;;;;5.03;2.17;;;;;;;14.53;100.00;101128.88;5070398;28;20025;-72
2023/04/28 08:54:20;;;;;;;6.13;2.13;;;;;;;13.91;100.00;101089.47;5071696;28;20482;-71
2023/04/28 08:56:47;;;;;;;6.85;2.40;;;;;;;14.50;100.00;101121.28;5070964;28;20429;-71
2023/04/28 08:59:13;;;;;;;4.53;2.22;;;;;;;14.35;100.00;101050.03;5070870;28;20025;-71
2023/04/28 09:01:38;;;;;;;7.57;2.35;;;;;;;14.19;100.00;101093.91;5069773;28;20033;-71
2023/04/28 09:04:04;;;;;;;5.88;2.20;;;;;;;13.59;100.00;101029.72;5070772;28;20482;-72
2023/04/28 09:06:38;;;;;;;6.85;2.35;;;;;;;14.76;100.00;101083.03;5071332;28;20039;-71
2023/04/28 09:09:19;;;;;;;6.25;2.47;;;;;;;15.24;100.00;101090.22;5071275;28;20036;-71
2023/04/28 09:11:57;;;;;;;6.45;2.65;;;;;;;15.21;100.00;101086.00;5070908;28;20045;-71
2023/04/28 09:14:23;;;;;;;7.45;2.58;;;;;;;14.45;100.00;101060.84;5071037;28;20131;-72
2023/04/28 09:16:50;;;;;;;6.40;2.65;;;;;;;14.27;100.00;101005.88;5069378;28;20040;-71
2023/04/28 09:19:16;;;;;;;3.45;2.47;;;;;;;14.09;100.00;101019.13;5069714;28;20025;-72
2023/04/28 09:21:55;;;;;;;4.38;2.03;;;;;;;13.97;100.00;101013.47;5070024;28;20054;-76
2023/04/28 09:24:42;;;;;;;7.00;2.92;;;;;;;15.37;100.00;101066.72;5070946;28;20491;-71
2023/04/28 09:27:10;;;;;;;7.60;2.35;;;;;;;15.81;100.00;101067.09;5071322;28;20028;-72
2023/04/28 09:29:38;;;;;;;4.53;2.17;;;;;;;15.41;100.00;101070.06;5071355;28;20028;-72
2023/04/28 09:32:13;;;;;;;4.90;2.20;;;;;;;14.49;100.00;101018.94;5070628;28;20477;-72
2023/04/28 09:34:50;;;;;;;5.68;2.33;;;;;;;13.30;100.00;101043.19;5071205;28;20025;-69
2023/04/28 09:37:16;;;;;;;4.97;2.53;;;;;;;14.52;100.00;101073.44;5069323;28;20698;-70
2023/04/28 09:39:46;;;;;;;3.78;2.30;;;;;;;14.23;100.00;101021.31;5069840;28;20423;-71
2023/04/28 09:42:31;;;;;;;5.50;2.95;;;;;;;14.32;100.00;101064.63;5069223;28;20123;-72
2023/04/28 09:44:57;;;;;;;6.03;2.72;;;;;;;14.41;100.00;101049.03;5069723;28;20033;-70
2023/04/28 09:47:24;;;;;;;8.70;5.35;;;;;;;15.19;100.00;101040.84;5069615;28;20388;-69
2023/04/28 09:49:56;;;;;;;6.22;2.58;;;;;;;14.66;100.00;101073.06;5070940;28;20029;-71
2023/04/28 09:52:23;;;;;;;5.80;2.53;;;;;;;14.80;100.00;101060.72;5070717;28;20120;-70
2023/04/28 09:54:54;;;;;;;5.63;2.72;;;;;;;14.71;100.00;101078.91;5070407;28;20078;-71
2023/04/28 09:57:21;;;;;;;6.68;2.55;;;;;;;15.69;100.00;101050.38;5070352;28;20151;-70
2023/04/28 09:59:51;;;;;;;6.30;3.40;;;;;;;15.74;100.00;101075.91;5068949;28;20123;-72
2023/04/28 10:02:19;;;;;;;5.55;2.95;;;;;;;15.39;100.00;101074.41;5069371;28;20028;-71
2023/04/28 10:04:46;;;;;;;22.02;10.93;;;;;;;15.22;100.00;101049.25;5069241;28;20509;-71
2023/04/28 10:07:15;;;;;;;7.32;3.20;;;;;;;15.39;100.00;101064.16;5070971;28;20529;-71
2023/04/28 10:09:48;;;;;;;6.65;2.90;;;;;;;15.25;100.00;101061.16;5072833;28;20514;-71
2023/04/28 10:12:15;;;;;;;3.85;2.30;;;;;;;16.02;100.00;101058.75;5072934;28;20048;-71
2023/04/28 10:14:41;;;;;;;4.60;2.38;;;;;;;15.22;100.00;101062.06;5072788;28;20028;-71
2023/04/28 10:17:07;;;;;;;7.88;2.70;;;;;;;15.04;100.00;101051.50;5074370;28;20426;-71
2023/04/28 10:19:33;;;;;;;6.38;2.90;;;;;;;16.42;100.00;101075.31;5072154;28;20079;-71
2023/04/28 10:22:13;;;;;;;5.03;2.20;;;;;;;16.02;100.00;101074.97;5073004;28;20028;-71
2023/04/28 10:25:06;;;;;;;6.78;2.90;;;;;;;15.99;100.00;101076.78;5074268;28;20035;-71
2023/04/28 10:27:33;;;;;;;8.27;3.05;;;;;;;15.92;100.00;101076.16;5072937;28;20478;-71
2023/04/28 10:30:16;;;;;;;5.95;2.33;;;;;;;16.89;100.00;101068.53;5072457;28;20411;-71
2023/04/28 10:32:47;;;;;;;6.40;2.40;;;;;;;16.93;100.00;101061.56;5072425;28;20028;-71
2023/04/28 10:35:22;;;;;;;4.53;2.70;;;;;;;16.48;100.00;101066.56;5068131;28;20510;-71
2023/04/28 10:38:13;;;;;;;5.13;2.63;;;;;;;15.89;100.00;101063.41;5069755;28;20032;-76
2023/04/28 10:40:46;;;;;;;4.70;2.50;;;;;;;16.63;100.00;101070.34;5069572;28;20037;-72
2023/04/28 10:43:32;;;;;;;6.30;4.45;;;;;;;16.71;100.00;101069.19;5068791;28;20261;-70
2023/04/28 10:45:59;;;;;;;4.93;2.30;;;;;;;16.86;100.00;101072.94;5051353;28;20052;-71
2023/04/28 10:48:25;;;;;;;4.75;2.10;;;;;;;16.85;100.00;101066.97;5052434;28;20093;-71
2023/04/28 10:51:06;;;;;;;4.95;2.40;;;;;;;17.80;100.00;101072.78;5069250;28;20029;-71
2023/04/28 10:53:44;;;;;;;3.47;2.22;;;;;;;17.55;100.00;101077.22;5053210;28;20025;-71
2023/04/28 10:56:10;;;;;;;5.95;2.45;;;;;;;17.33;100.00;101093.41;5068996;28;20037;-71
2023/04/28 10:58:40;;;;;;;8.05;3.13;;;;;;;16.80;100.00;101038.03;5068752;28;20078;-72
2023/04/28 11:01:21;;;;;;;7.32;2.78;;;;;;;16.39;100.00;101090.81;5068752;28;20025;-73
2023/04/28 11:03:46;;;;;;;5.68;2.70;;;;;;;16.33;100.00;101103.03;5068806;28;20514;-73
2023/04/28 11:06:33;;;;;;;6.22;2.42;;;;;;;16.35;100.00;101103.81;5052514;28;20060;-71
2023/04/28 11:09:12;;;;;;;3.95;2.33;;;;;;;16.23;100.00;101070.84;5068317;28;20135;-71
2023/04/28 11:11:58;;;;;;;5.95;2.83;;;;;;;18.12;100.00;101142.63;5068332;28;20049;-70
2023/04/28 11:14:24;;;;;;;7.68;2.60;;;;;;;16.88;100.00;101154.19;5037523;28;20067;-69
2023/04/28 11:16:52;;;;;;;3.92;2.28;;;;;;;17.00;100.00;101181.19;5052718;28;20073;-75
2023/04/28 11:19:23;;;;;;;3.85;2.47;;;;;;;16.34;100.00;101182.53;5052730;28;20112;-70